createdAt,value
2019-01-18T00:01:35.124Z,100866.65
2019-01-18T00:04:04.551Z,100876.17
2019-01-18T00:06:33.918Z,100877.46
2019-01-18T00:09:02.888Z,100888.78
2019-01-18T00:11:32.009Z,100889.69
2019-01-18T00:14:00.786Z,100889.84
2019-01-18T00:16:30.823Z,100898.59
2019-01-18T00:18:59.701Z,100901.61
2019-01-18T00:21:29.077Z,100902.75
2019-01-18T00:23:58.244Z,100916.80
2019-01-18T00:26:27.358Z,100919.77
2019-01-18T00:28:56.993Z,100935.97
2019-01-18T00:31:26.183Z,100933.88
2019-01-18T00:33:59.152Z,100935.88
2019-01-18T00:36:28.088Z,100946.95
2019-01-18T00:38:57.052Z,100949.55
2019-01-18T00:41:25.918Z,100958.25
2019-01-18T00:43:54.811Z,100970.62
2019-01-18T00:46:23.965Z,100973.37
2019-01-18T00:48:52.796Z,100980.20
2019-01-18T00:51:21.642Z,100985.63
2019-01-18T00:53:50.714Z,100986.48
2019-01-18T00:56:19.571Z,100992.31
2019-01-18T00:58:48.369Z,100999.92
2019-01-18T01:01:17.363Z,100999.81
2019-01-18T01:03:46.254Z,101021.39
2019-01-18T01:06:15.457Z,101020.81
2019-01-18T01:08:44.343Z,101027.41
2019-01-18T01:11:13.232Z,101026.63
2019-01-18T01:13:42.327Z,101023.59
2019-01-18T01:16:11.644Z,101030.08
2019-01-18T01:18:40.524Z,101037.94
2019-01-18T01:21:09.324Z,101042.19
2019-01-18T01:23:47.681Z,101049.47
2019-01-18T01:26:16.811Z,101068.74
2019-01-18T01:28:45.645Z,101079.84
2019-01-18T01:31:14.457Z,101084.48
2019-01-18T01:33:43.358Z,101092.91
2019-01-18T01:36:12.228Z,101095.23
2019-01-18T01:38:41.153Z,101090.83
2019-01-18T01:41:10.040Z,101102.27
2019-01-18T01:43:38.857Z,101115.28
2019-01-18T01:46:08.075Z,101119.65
2019-01-18T01:48:37.456Z,101121.83
2019-01-18T01:51:06.313Z,101132.58
2019-01-18T01:53:35.119Z,101134.27
2019-01-18T01:56:04.014Z,101134.47
2019-01-18T01:58:32.964Z,101143.00
2019-01-18T02:01:01.936Z,101154.39
2019-01-18T02:03:31.064Z,101153.39
2019-01-18T02:06:45.345Z,101159.25
2019-01-18T02:09:14.623Z,101161.77
2019-01-18T02:11:43.609Z,101171.66
2019-01-18T02:14:12.707Z,101179.09
2019-01-18T02:16:41.695Z,101181.33
2019-01-18T02:19:10.668Z,101185.05
2019-01-18T02:21:39.874Z,101186.26
2019-01-18T02:24:09.521Z,101196.64
2019-01-18T02:26:38.405Z,101206.64
2019-01-18T02:29:07.226Z,101205.25
2019-01-18T02:31:36.167Z,101213.91
2019-01-18T02:37:33.112Z,101223.70
2019-01-18T02:40:02.312Z,101229.20
2019-01-18T02:42:31.132Z,101224.77
2019-01-18T02:44:59.948Z,101237.83
2019-01-18T02:47:29.377Z,101232.73
2019-01-18T02:50:00.869Z,101239.76
2019-01-18T02:52:30.048Z,101233.27
2019-01-18T02:54:59.101Z,101237.27
2019-01-18T02:57:28.571Z,101240.77
2019-01-18T03:00:04.806Z,101232.49
2019-01-18T03:02:28.552Z,101236.52
2019-01-18T03:04:57.485Z,101240.95
2019-01-18T03:07:26.733Z,101240.97
2019-01-18T03:09:55.634Z,101252.28
2019-01-18T03:12:24.563Z,101253.15
2019-01-18T03:14:53.374Z,101258.42
2019-01-18T03:17:22.246Z,101257.61
2019-01-18T03:20:43.923Z,101264.91
2019-01-18T03:23:12.805Z,101266.70
2019-01-18T03:25:41.935Z,101272.45
2019-01-18T03:28:11.984Z,101265.95
2019-01-18T03:30:40.835Z,101278.90
2019-01-18T03:33:09.754Z,101277.58
2019-01-18T03:35:38.602Z,101291.84
2019-01-18T03:38:07.494Z,101289.21
2019-01-18T03:40:36.311Z,101295.84
2019-01-18T03:43:05.573Z,101302.31
2019-01-18T03:45:34.439Z,101303.99
2019-01-18T03:48:03.394Z,101310.34
2019-01-18T03:50:32.553Z,101310.48
2019-01-18T03:53:01.429Z,101310.97
2019-01-18T03:55:30.385Z,101320.52
2019-01-18T03:57:59.764Z,101323.95
2019-01-18T04:00:30.090Z,101324.37
2019-01-18T04:02:59.102Z,101328.80
2019-01-18T04:05:28.140Z,101336.58
2019-01-18T04:07:57.074Z,101342.61
2019-01-18T04:10:26.271Z,101353.38
2019-01-18T04:12:55.595Z,101354.70
2019-01-18T04:15:25.865Z,101355.65
2019-01-18T04:17:54.810Z,101356.88
2019-01-18T04:20:25.312Z,101364.75
2019-01-18T04:22:54.260Z,101374.70
2019-01-18T04:25:27.126Z,101367.38
2019-01-18T04:27:56.047Z,101372.59
2019-01-18T04:30:33.599Z,101371.30
2019-01-18T04:32:59.725Z,101380.30
2019-01-18T04:35:28.642Z,101390.31
2019-01-18T04:37:57.760Z,101391.59
2019-01-18T04:40:45.057Z,101386.80
2019-01-18T04:43:13.885Z,101388.05
2019-01-18T04:45:43.500Z,101409.31
2019-01-18T04:48:12.287Z,101404.99
2019-01-18T04:50:41.454Z,101392.42
2019-01-18T04:53:10.744Z,101395.87
2019-01-18T04:55:39.566Z,101411.88
2019-01-18T04:58:08.690Z,101419.23
2019-01-18T05:00:41.096Z,101429.66
2019-01-18T05:03:08.915Z,101428.33
2019-01-18T05:05:37.748Z,101435.69
2019-01-18T05:08:06.545Z,101439.56
2019-01-18T05:10:35.740Z,101443.45
2019-01-18T05:13:04.772Z,101446.45
2019-01-18T05:15:35.699Z,101448.60
2019-01-18T05:18:04.517Z,101456.82
2019-01-18T05:20:33.498Z,101455.55
2019-01-18T05:23:02.420Z,101458.98
2019-01-18T05:25:31.233Z,101461.15
2019-01-18T05:28:00.555Z,101464.57
2019-01-18T05:30:30.440Z,101473.23
2019-01-18T05:32:59.311Z,101465.03
2019-01-18T05:35:28.381Z,101470.20
2019-01-18T05:38:10.125Z,101458.14
2019-01-18T05:40:38.950Z,101473.22
2019-01-18T05:43:07.770Z,101473.66
2019-01-18T05:45:36.929Z,101480.13
2019-01-18T05:48:05.979Z,101485.75
2019-01-18T05:50:34.867Z,101480.14
2019-01-18T05:53:06.485Z,101488.77
2019-01-18T05:55:35.371Z,101488.77
2019-01-18T05:58:04.532Z,101496.55
2019-01-18T06:00:55.017Z,101497.41
2019-01-18T06:03:18.877Z,101495.69
2019-01-18T06:05:47.972Z,101497.42
2019-01-18T06:08:16.926Z,101503.88
2019-01-18T06:10:46.172Z,101505.20
2019-01-18T06:13:15.085Z,101498.70
2019-01-18T06:15:44.593Z,101503.45
2019-01-18T06:18:14.608Z,101502.59
2019-01-18T06:20:47.378Z,101504.31
2019-01-18T06:23:17.370Z,101508.64
2019-01-18T06:25:46.457Z,101509.50
2019-01-18T06:28:15.294Z,101515.11
2019-01-18T06:30:45.299Z,101512.94
2019-01-18T06:33:15.011Z,101504.33
2019-01-18T06:35:43.887Z,101511.22
2019-01-18T06:38:14.754Z,101515.09
2019-01-18T06:40:45.067Z,101519.83
2019-01-18T06:43:13.919Z,101514.64
2019-01-18T06:45:44.061Z,101515.94
2019-01-18T06:48:15.730Z,101521.55
2019-01-18T06:50:44.538Z,101528.40
2019-01-18T06:53:13.618Z,101522.34
2019-01-18T06:55:42.692Z,101525.81
2019-01-18T06:58:11.733Z,101524.50
2019-01-18T07:00:40.873Z,101530.12
2019-01-18T07:03:09.821Z,101537.05
2019-01-18T07:05:38.867Z,101539.63
2019-01-18T07:08:07.843Z,101536.18
2019-01-18T07:10:36.757Z,101544.81
2019-01-18T07:13:05.639Z,101554.70
2019-01-18T07:15:34.440Z,101560.28
2019-01-18T07:18:03.435Z,101555.11
2019-01-18T07:20:32.316Z,101555.97
2019-01-18T07:23:01.491Z,101565.89
2019-01-18T07:25:31.551Z,101566.28
2019-01-18T07:28:00.642Z,101572.32
2019-01-18T07:30:38.356Z,101577.06
2019-01-18T07:33:09.842Z,101577.06
2019-01-18T07:35:39.086Z,101587.87
2019-01-18T07:38:08.043Z,101584.45
2019-01-18T07:40:36.868Z,101588.35
2019-01-18T07:43:05.769Z,101582.80
2019-01-18T07:45:35.039Z,101590.56
2019-01-18T07:48:04.071Z,101584.53
2019-01-18T07:50:32.935Z,101592.34
2019-01-18T07:53:02.184Z,101597.07
2019-01-18T07:55:31.048Z,101603.10
2019-01-18T07:58:00.016Z,101604.00
2019-01-18T08:00:30.037Z,101604.86
2019-01-18T08:02:59.155Z,101609.19
2019-01-18T08:05:32.282Z,101606.17
2019-01-18T08:08:03.110Z,101606.19
2019-01-18T08:10:32.086Z,101609.19
2019-01-18T08:13:01.014Z,101603.61
2019-01-18T08:15:30.448Z,101610.48
2019-01-18T08:17:59.458Z,101610.52
2019-01-18T08:20:30.092Z,101610.50
2019-01-18T08:22:59.233Z,101617.82
2019-01-18T08:25:28.148Z,101617.82
2019-01-18T08:27:57.428Z,101615.66
2019-01-18T08:30:28.220Z,101612.63
2019-01-18T08:32:57.474Z,101615.22
2019-01-18T08:35:27.208Z,101616.52
2019-01-18T08:37:56.288Z,101626.44
2019-01-18T08:40:30.342Z,101626.89
2019-01-18T08:42:59.816Z,101630.77
2019-01-18T08:46:00.987Z,101626.01
2019-01-18T08:48:29.779Z,101629.90
2019-01-18T08:50:59.022Z,101635.48
2019-01-18T08:53:27.846Z,101629.02
2019-01-18T08:55:56.761Z,101634.17
2019-01-18T08:58:25.652Z,101636.34
2019-01-18T09:00:54.552Z,101638.92
2019-01-18T09:03:23.435Z,101637.20
2019-01-18T09:05:52.287Z,101642.80
2019-01-18T09:08:21.149Z,101638.00
2019-01-18T09:10:50.490Z,101638.86
2019-01-18T09:13:19.596Z,101640.13
2019-01-18T09:15:48.572Z,101635.38
2019-01-18T09:18:17.475Z,101641.81
2019-01-18T09:20:46.296Z,101640.95
2019-01-18T09:23:15.465Z,101644.86
2019-01-18T09:25:44.327Z,101644.83
2019-01-18T09:28:13.242Z,101660.80
2019-01-18T09:30:42.173Z,101658.58
2019-01-18T09:33:11.130Z,101660.25
2019-01-18T09:35:40.737Z,101670.23
2019-01-18T09:38:17.711Z,101671.96
2019-01-18T09:40:42.899Z,101674.42
2019-01-18T09:43:12.244Z,101681.72
2019-01-18T09:45:41.131Z,101681.73
2019-01-18T09:48:11.247Z,101685.57
2019-01-18T09:50:40.510Z,101696.84
2019-01-18T09:53:11.070Z,101691.11
2019-01-18T09:55:40.042Z,101689.50
2019-01-18T09:58:09.265Z,101698.14
2019-01-18T10:00:39.637Z,101691.61
2019-01-18T10:03:09.014Z,101696.33
2019-01-18T10:05:38.129Z,101699.77
2019-01-18T10:08:09.878Z,101695.43
2019-01-18T10:10:39.004Z,101693.30
2019-01-18T10:13:08.054Z,101695.38
2019-01-18T10:15:39.792Z,101700.45
2019-01-18T10:18:08.745Z,101704.80
2019-01-18T10:20:37.566Z,101695.63
2019-01-18T10:23:06.453Z,101695.11
2019-01-18T10:25:35.376Z,101702.78
2019-01-18T10:28:04.322Z,101701.92
2019-01-18T10:30:33.206Z,101701.77
2019-01-18T10:33:02.061Z,101707.34
2019-01-18T10:35:32.929Z,101708.97
2019-01-18T10:38:02.096Z,101706.75
2019-01-18T10:40:30.902Z,101709.23
2019-01-18T10:42:59.995Z,101708.45
2019-01-18T10:45:31.584Z,101708.58
2019-01-18T10:48:00.442Z,101717.13
2019-01-18T10:50:33.716Z,101719.31
2019-01-18T10:53:02.759Z,101718.81
2019-01-18T10:55:31.644Z,101720.16
2019-01-18T10:58:00.529Z,101720.53
2019-01-18T11:00:32.359Z,101722.76
2019-01-18T11:03:01.185Z,101718.02
2019-01-18T11:05:30.432Z,101721.93
2019-01-18T11:07:59.391Z,101727.59
2019-01-18T11:10:28.280Z,101733.71
2019-01-18T11:12:57.555Z,101732.77
2019-01-18T11:15:28.589Z,101730.11
2019-01-18T11:17:58.098Z,101733.11
2019-01-18T11:20:36.702Z,101733.98
2019-01-18T11:23:05.546Z,101729.92
2019-01-18T11:25:34.756Z,101726.50
2019-01-18T11:28:03.910Z,101726.88
2019-01-18T11:30:33.645Z,101728.85
2019-01-18T11:33:02.449Z,101725.69
2019-01-18T11:35:32.329Z,101729.45
2019-01-18T11:38:01.304Z,101727.69
2019-01-18T11:40:30.455Z,101725.86
2019-01-18T11:42:59.502Z,101726.57
2019-01-18T11:45:28.417Z,101729.20
2019-01-18T11:47:57.651Z,101725.72
2019-01-18T11:50:26.733Z,101726.42
2019-01-18T11:52:55.760Z,101729.78
2019-01-18T11:55:24.954Z,101723.20
2019-01-18T11:57:53.894Z,101729.64
2019-01-18T12:00:25.096Z,101729.59
2019-01-18T12:02:53.980Z,101730.45
2019-01-18T12:05:23.034Z,101728.94
2019-01-18T12:07:52.050Z,101727.75
2019-01-18T12:10:23.222Z,101732.09
2019-01-18T12:12:52.204Z,101733.92
2019-01-18T12:15:21.210Z,101732.95
2019-01-18T12:17:50.115Z,101734.09
2019-01-18T12:20:24.477Z,101736.70
2019-01-18T12:22:53.546Z,101740.20
2019-01-18T12:25:23.131Z,101743.86
2019-01-18T12:27:51.910Z,101739.20
2019-01-18T12:30:23.825Z,101739.70
2019-01-18T12:32:52.659Z,101732.38
2019-01-18T12:35:21.635Z,101734.13
2019-01-18T12:37:50.536Z,101734.05
2019-01-18T12:40:19.439Z,101720.77
2019-01-18T12:42:48.280Z,101733.27
2019-01-18T12:45:19.207Z,101737.09
2019-01-18T12:47:48.140Z,101736.27
2019-01-18T12:50:23.243Z,101735.44
2019-01-18T12:52:52.305Z,101736.30
2019-01-18T12:55:21.153Z,101733.83
2019-01-18T12:57:50.173Z,101738.07
2019-01-18T13:00:21.281Z,101733.69
2019-01-18T13:02:50.955Z,101728.44
2019-01-18T13:05:23.124Z,101734.45
2019-01-18T13:07:52.088Z,101737.48
2019-01-18T13:10:20.951Z,101731.38
2019-01-18T13:12:49.869Z,101729.19
2019-01-18T13:15:39.431Z,101729.12
2019-01-18T13:18:08.373Z,101727.46
2019-01-18T13:20:37.504Z,101728.35
2019-01-18T13:23:06.624Z,101731.52
2019-01-18T13:25:35.660Z,101733.89
2019-01-18T13:28:04.818Z,101730.42
2019-01-18T13:30:35.204Z,101732.44
2019-01-18T13:33:04.398Z,101733.14
2019-01-18T13:35:33.393Z,101732.05
2019-01-18T13:38:02.399Z,101732.84
2019-01-18T13:40:31.405Z,101741.67
2019-01-18T13:43:00.450Z,101742.59
2019-01-18T13:45:29.364Z,101747.80
2019-01-18T13:47:58.680Z,101747.47
2019-01-18T13:50:27.540Z,101749.52
2019-01-18T13:52:56.515Z,101749.64
2019-01-18T13:55:26.581Z,101756.91
2019-01-18T13:57:55.577Z,101754.88
2019-01-18T14:00:24.514Z,101754.86
2019-01-18T14:02:53.471Z,101761.80
2019-01-18T14:05:22.313Z,101759.95
2019-01-18T14:07:53.347Z,101769.09
2019-01-18T14:10:25.277Z,101765.50
2019-01-18T14:12:54.406Z,101772.70
2019-01-18T14:15:23.721Z,101771.76
2019-01-18T14:17:52.604Z,101776.89
2019-01-18T14:20:21.998Z,101776.83
2019-01-18T14:22:51.639Z,101778.75
2019-01-18T14:25:20.716Z,101784.89
2019-01-18T14:27:49.642Z,101793.58
2019-01-18T14:30:21.171Z,101784.00
2019-01-18T14:32:55.447Z,101789.22
2019-01-18T14:35:20.638Z,101801.25
2019-01-18T14:37:49.845Z,101801.25
2019-01-18T14:40:18.998Z,101802.32
2019-01-18T14:42:47.908Z,101803.81
2019-01-18T14:45:19.863Z,101810.88
2019-01-18T14:47:48.739Z,101811.58
2019-01-18T14:50:18.838Z,101816.36
2019-01-18T14:52:47.845Z,101812.97
2019-01-18T14:55:17.032Z,101811.58
2019-01-18T14:57:45.979Z,101816.36
2019-01-18T15:00:34.207Z,101815.21
2019-01-18T15:03:04.618Z,101816.36
2019-01-18T15:05:33.654Z,101814.03
2019-01-18T15:08:03.031Z,101815.75
2019-01-18T15:10:31.800Z,101810.22
2019-01-18T15:13:03.389Z,101810.80
2019-01-18T15:15:32.681Z,101819.91
2019-01-18T15:18:01.565Z,101828.54
2019-01-18T15:20:31.445Z,101821.70
2019-01-18T15:23:00.737Z,101827.91
2019-01-18T15:25:29.677Z,101835.78
2019-01-18T15:27:58.646Z,101831.74
2019-01-18T15:30:29.108Z,101839.30
2019-01-18T15:32:57.931Z,101839.36
2019-01-18T15:35:29.101Z,101835.06
2019-01-18T15:37:58.332Z,101837.50
2019-01-18T15:40:28.848Z,101843.33
2019-01-18T15:43:06.869Z,101842.32
2019-01-18T15:45:35.683Z,101841.95
2019-01-18T15:48:04.671Z,101842.70
2019-01-18T15:50:36.026Z,101842.91
2019-01-18T15:53:05.462Z,101850.86
2019-01-18T15:55:34.526Z,101845.62
2019-01-18T15:58:03.557Z,101846.40
2019-01-18T16:00:37.575Z,101854.22
2019-01-18T16:03:07.138Z,101849.30
2019-01-18T16:05:36.305Z,101850.63
2019-01-18T16:08:06.193Z,101854.03
2019-01-18T16:10:35.324Z,101850.09
2019-01-18T16:13:04.811Z,101852.46
2019-01-18T16:15:52.974Z,101854.14
2019-01-18T16:18:22.169Z,101856.84
2019-01-18T16:20:51.044Z,101859.42
2019-01-18T16:23:20.025Z,101866.16
2019-01-18T16:25:48.966Z,101862.23
2019-01-18T16:28:17.935Z,101860.63
2019-01-18T16:30:46.910Z,101863.34
2019-01-18T16:33:23.044Z,101860.66
2019-01-18T16:35:46.328Z,101858.85
2019-01-18T16:38:15.132Z,101851.38
2019-01-18T16:40:43.926Z,101860.01
2019-01-18T16:43:19.873Z,101854.89
2019-01-18T16:45:48.834Z,101857.91
2019-01-18T16:48:17.744Z,101865.30
2019-01-18T16:50:46.580Z,101862.30
2019-01-18T16:53:15.866Z,101858.36
2019-01-18T16:55:44.724Z,101863.25
2019-01-18T16:58:13.759Z,101860.18
2019-01-18T17:00:43.516Z,101860.28
2019-01-18T17:03:12.514Z,101855.78
2019-01-18T17:05:41.589Z,101854.59
2019-01-18T17:08:10.977Z,101859.75
2019-01-18T17:10:40.161Z,101854.64
2019-01-18T17:13:09.003Z,101854.54
2019-01-18T17:15:38.024Z,101857.61
2019-01-18T17:18:07.202Z,101852.98
2019-01-18T17:20:38.780Z,101852.14
2019-01-18T18:50:04.587Z,101905.27
2019-01-18T18:53:06.249Z,101903.57
2019-01-18T18:56:12.879Z,101909.22
2019-01-18T18:59:25.442Z,101910.54
2019-01-18T19:02:25.608Z,101915.70
2019-01-18T19:05:25.482Z,101918.41
2019-01-18T19:08:07.543Z,101914.50
2019-01-18T19:10:57.742Z,101920.14
2019-01-18T19:14:12.626Z,101917.89
2019-01-18T19:17:11.735Z,101917.47
2019-01-18T19:20:03.546Z,101920.91
2019-01-18T19:22:47.413Z,101930.45
2019-01-18T19:25:59.807Z,101931.30
2019-01-18T19:29:01.880Z,101926.55
2019-01-18T19:32:16.243Z,101923.95
2019-01-18T19:35:05.500Z,101926.02
2019-01-18T19:38:18.980Z,101933.52
2019-01-18T19:41:11.870Z,101936.92
2019-01-18T19:44:18.268Z,101937.83
2019-01-18T19:47:15.488Z,101936.06
2019-01-18T19:50:32.978Z,101936.92
2019-01-18T19:53:20.355Z,101942.22
2019-01-18T19:56:47.153Z,101950.47
2019-01-18T20:00:11.708Z,101951.34
2019-01-18T20:02:51.819Z,101949.16
2019-01-18T20:06:00.898Z,101951.77
2019-01-18T20:09:11.797Z,101953.95
2019-01-18T20:11:59.994Z,101947.59
2019-01-18T20:15:06.441Z,101956.58
2019-01-18T20:18:18.346Z,101954.05
2019-01-18T20:21:20.362Z,101951.05
2019-01-18T20:24:22.167Z,101951.09
2019-01-18T20:27:44.576Z,101956.31
2019-01-18T20:30:43.896Z,101952.02
2019-01-18T20:33:56.479Z,101961.17
2019-01-18T20:36:32.542Z,101962.48
2019-01-18T20:39:35.856Z,101963.40
2019-01-18T20:42:33.892Z,101964.25
2019-01-18T20:46:02.242Z,101965.09
2019-01-18T20:49:03.559Z,101966.88
2019-01-18T20:51:51.639Z,101966.84
2019-01-18T20:55:03.053Z,101967.71
2019-01-18T20:58:25.189Z,101972.97
2019-01-18T21:01:35.045Z,101968.68
2019-01-18T21:04:38.564Z,101979.55
2019-01-18T21:07:19.955Z,101972.66
2019-01-18T21:10:25.580Z,101981.01
2019-01-18T21:13:36.555Z,101975.28
2019-01-18T21:16:57.817Z,101979.70
2019-01-18T21:20:02.825Z,101975.33
2019-01-18T21:23:21.726Z,101984.01
2019-01-18T21:26:07.778Z,101984.03
2019-01-18T21:29:26.311Z,101976.22
2019-01-18T21:32:39.545Z,101985.31
2019-01-18T21:35:27.782Z,101979.31
2019-01-18T21:38:12.541Z,101982.28
2019-01-18T21:40:53.112Z,101984.94
2019-01-18T21:43:38.668Z,101985.87
2019-01-18T21:46:23.931Z,101986.71
2019-01-18T21:49:19.509Z,101985.91
2019-01-18T21:52:38.795Z,101986.82
2019-01-18T21:55:23.280Z,101984.61
2019-01-18T21:58:18.861Z,101985.96
2019-01-18T22:01:28.970Z,101986.83
2019-01-18T22:04:40.530Z,101986.34
2019-01-18T22:07:33.931Z,101984.19
2019-01-18T22:10:18.269Z,101982.03
2019-01-18T22:13:28.791Z,101976.88
2019-01-18T22:16:42.342Z,101982.50
2019-01-18T22:19:51.860Z,101978.60
2019-01-18T22:22:29.340Z,101979.53
2019-01-18T22:25:40.051Z,101990.41
2019-01-18T22:28:48.750Z,101986.47
2019-01-18T22:31:50.534Z,101976.08
2019-01-18T22:34:51.444Z,101987.33
2019-01-18T22:38:04.861Z,101987.72
2019-01-18T22:41:02.855Z,101996.41
2019-01-18T22:43:59.832Z,101988.60
2019-01-18T22:47:11.995Z,101988.16
2019-01-18T22:49:52.974Z,101994.66
2019-01-18T22:52:50.633Z,101989.48
2019-01-18T22:55:35.771Z,101991.62
2019-01-18T22:58:51.122Z,101994.69
2019-01-18T23:01:43.457Z,101998.17
2019-01-18T23:04:55.559Z,101994.28
2019-01-18T23:07:49.562Z,101996.86
2019-01-18T23:11:06.405Z,101994.69
2019-01-18T23:14:09.551Z,102001.20
2019-01-18T23:17:12.875Z,102009.00
2019-01-18T23:19:50.379Z,102005.59
2019-01-18T23:22:53.736Z,102005.08
2019-01-18T23:25:57.006Z,102011.17
2019-01-18T23:28:53.832Z,102012.47
2019-01-18T23:31:40.111Z,102011.62
2019-01-18T23:34:25.331Z,102012.48
2019-01-18T23:37:18.943Z,102016.81
2019-01-18T23:40:30.884Z,102015.08
2019-01-18T23:43:53.425Z,102018.17
2019-01-18T23:46:59.523Z,102005.64
2019-01-18T23:50:03.565Z,101987.48
2019-01-18T23:53:07.146Z,101998.69
2019-01-18T23:55:58.229Z,101998.69
2019-01-18T23:58:45.600Z,101995.69
